createdAt,value
2019-02-18T00:02:59.246Z,33.07
2019-02-18T00:08:05.660Z,34.67
2019-02-18T00:13:12.569Z,32.67
2019-02-18T00:18:18.505Z,46.57
2019-02-18T00:23:24.221Z,36.47
2019-02-18T00:28:30.339Z,37.50
2019-02-18T00:33:37.670Z,37.00
2019-02-18T00:38:43.334Z,34.33
2019-02-18T00:43:49.308Z,33.80
2019-02-18T00:48:54.890Z,34.63
2019-02-18T00:54:00.677Z,33.53
2019-02-18T00:59:07.091Z,34.83
2019-02-18T01:04:12.948Z,37.13
2019-02-18T01:09:18.724Z,34.90
2019-02-18T01:14:24.510Z,37.80
2019-02-18T01:19:30.520Z,38.30
2019-02-18T01:24:36.320Z,31.90
2019-02-18T01:29:41.890Z,38.40
2019-02-18T01:34:48.682Z,37.50
2019-02-18T01:39:56.271Z,37.13
2019-02-18T01:45:02.060Z,34.03
2019-02-18T01:50:10.442Z,38.77
2019-02-18T01:55:16.205Z,34.37
2019-02-18T02:00:22.304Z,34.93
2019-02-18T02:05:28.520Z,36.07
2019-02-18T02:10:34.582Z,39.47
2019-02-18T02:15:41.693Z,36.10
2019-02-18T02:20:49.181Z,35.33
2019-02-18T02:25:55.889Z,36.10
2019-02-18T02:31:03.343Z,36.27
2019-02-18T02:36:09.279Z,36.90
2019-02-18T02:41:15.536Z,32.83
2019-02-18T02:46:21.361Z,34.70
2019-02-18T02:51:27.392Z,36.50
2019-02-18T02:56:33.607Z,34.53
2019-02-18T03:01:39.357Z,35.63
2019-02-18T03:06:45.336Z,39.17
2019-02-18T03:11:50.910Z,34.27
2019-02-18T03:16:56.521Z,33.13
2019-02-18T03:22:02.418Z,32.93
2019-02-18T03:27:08.206Z,34.33
2019-02-18T03:32:14.253Z,42.27
2019-02-18T03:37:19.993Z,38.27
2019-02-18T03:42:25.749Z,38.17
2019-02-18T03:47:31.985Z,37.53
2019-02-18T03:52:37.804Z,32.53
2019-02-18T03:57:43.370Z,32.43
2019-02-18T04:02:49.728Z,36.67
2019-02-18T04:07:55.349Z,35.17
2019-02-18T04:13:01.582Z,34.30
2019-02-18T04:18:07.144Z,36.63
2019-02-18T04:23:12.707Z,35.97
2019-02-18T04:28:18.555Z,36.03
2019-02-18T04:33:24.136Z,37.20
2019-02-18T04:38:30.544Z,35.17
2019-02-18T04:43:36.315Z,36.67
2019-02-18T04:48:42.048Z,39.57
2019-02-18T04:53:47.927Z,37.73
2019-02-18T04:58:53.841Z,34.63
2019-02-18T05:04:00.170Z,38.90
2019-02-18T05:09:06.602Z,34.60
2019-02-18T05:14:13.046Z,35.40
2019-02-18T05:19:19.258Z,35.87
2019-02-18T05:24:25.311Z,36.00
2019-02-18T05:29:30.984Z,40.10
2019-02-18T05:34:37.490Z,36.97
2019-02-18T05:39:43.085Z,36.07
2019-02-18T05:44:49.003Z,36.67
2019-02-18T05:49:54.653Z,38.53
2019-02-18T05:55:01.279Z,37.83
2019-02-18T06:00:10.391Z,38.10
2019-02-18T06:05:16.028Z,38.53
2019-02-18T06:10:22.373Z,36.17
2019-02-18T06:15:29.114Z,40.70
2019-02-18T06:20:34.865Z,35.13
2019-02-18T06:25:40.755Z,37.27
2019-02-18T06:30:46.338Z,40.87
2019-02-18T06:35:52.290Z,35.77
2019-02-18T06:40:58.939Z,36.00
2019-02-18T06:46:23.760Z,36.97
2019-02-18T06:51:29.730Z,39.40
2019-02-18T06:56:54.529Z,36.67
2019-02-18T07:02:02.579Z,37.10
2019-02-18T07:07:13.087Z,36.23
2019-02-18T07:12:26.322Z,33.27
2019-02-18T07:17:33.308Z,34.77
2019-02-18T07:22:40.130Z,38.07
2019-02-18T07:27:46.566Z,36.97
2019-02-18T07:32:52.989Z,38.97
2019-02-18T07:37:59.210Z,34.50
2019-02-18T07:43:05.834Z,32.40
2019-02-18T07:48:12.234Z,33.10
2019-02-18T07:53:18.120Z,33.27
2019-02-18T07:58:24.032Z,32.97
2019-02-18T08:03:30.195Z,31.07
2019-02-18T08:08:38.044Z,33.37
2019-02-18T08:13:45.912Z,35.70
2019-02-18T08:18:51.795Z,30.60
2019-02-18T08:24:00.251Z,33.87
2019-02-18T08:29:05.968Z,32.57
2019-02-18T08:34:11.919Z,29.90
2019-02-18T08:39:18.588Z,31.73
2019-02-18T08:44:24.860Z,30.83
2019-02-18T08:49:31.075Z,33.63
2019-02-18T08:54:37.547Z,27.57
2019-02-18T08:59:44.196Z,31.17
2019-02-18T09:04:50.849Z,28.03
2019-02-18T09:09:57.543Z,29.23
2019-02-18T09:15:04.007Z,28.23
2019-02-18T09:20:11.666Z,27.57
2019-02-18T09:25:19.023Z,31.10
2019-02-18T09:30:28.290Z,30.80
2019-02-18T09:35:34.645Z,25.13
2019-02-18T09:40:46.018Z,27.10
2019-02-18T09:45:49.659Z,26.30
2019-02-18T09:50:55.929Z,29.20
2019-02-18T09:56:01.821Z,28.10
2019-02-18T10:01:08.620Z,27.53
2019-02-18T10:06:14.571Z,25.43
2019-02-18T10:11:20.555Z,23.17
2019-02-18T10:16:26.802Z,23.67
2019-02-18T10:21:33.139Z,25.17
2019-02-18T10:26:39.188Z,23.73
2019-02-18T10:31:45.574Z,21.43
2019-02-18T10:36:53.599Z,18.70
2019-02-18T10:41:59.608Z,20.77
2019-02-18T10:47:06.185Z,21.83
2019-02-18T10:52:13.541Z,21.43
2019-02-18T10:57:19.573Z,22.73
2019-02-18T11:02:27.258Z,21.40
2019-02-18T11:07:33.440Z,20.83
2019-02-18T11:12:39.567Z,21.40
2019-02-18T11:17:45.855Z,23.33
2019-02-18T11:22:51.707Z,19.70
2019-02-18T11:27:58.154Z,21.83
2019-02-18T11:33:04.131Z,25.47
2019-02-18T11:38:10.411Z,22.53
2019-02-18T11:43:17.459Z,21.00
2019-02-18T11:48:24.292Z,20.67
2019-02-18T11:53:31.492Z,23.80
2019-02-18T11:58:37.723Z,19.30
2019-02-18T12:03:44.097Z,20.55
2019-02-18T12:08:50.986Z,19.05
2019-02-18T12:13:57.543Z,22.85
2019-02-18T12:19:03.406Z,22.45
2019-02-18T12:24:11.093Z,20.37
2019-02-18T12:29:26.284Z,19.32
2019-02-18T12:34:26.032Z,22.65
2019-02-18T12:39:33.802Z,18.67
2019-02-18T12:44:41.534Z,24.65
2019-02-18T12:49:51.035Z,30.32
2019-02-18T12:55:00.159Z,24.50
2019-02-18T13:00:17.594Z,23.47
2019-02-18T13:05:23.880Z,33.83
2019-02-18T13:10:35.076Z,24.40
2019-02-18T13:15:38.799Z,25.05
2019-02-18T13:20:44.679Z,25.15
2019-02-18T13:25:52.277Z,32.90
2019-02-18T13:30:59.934Z,27.10
2019-02-18T13:36:09.708Z,24.95
2019-02-18T13:41:15.625Z,28.05
2019-02-18T13:46:23.329Z,24.92
2019-02-18T13:51:30.465Z,24.52
2019-02-18T13:56:37.044Z,26.07
2019-02-18T14:01:43.400Z,22.62
2019-02-18T14:06:50.050Z,26.45
2019-02-18T14:11:56.442Z,26.17
2019-02-18T14:17:02.834Z,22.80
2019-02-18T14:22:09.813Z,24.98
2019-02-18T14:27:21.437Z,22.73
2019-02-18T14:32:30.009Z,24.50
2019-02-18T14:37:36.169Z,24.05
2019-02-18T14:42:42.455Z,23.00
2019-02-18T14:47:48.500Z,24.90
2019-02-18T14:52:54.174Z,35.78
2019-02-18T14:58:00.533Z,24.47
2019-02-18T15:03:08.767Z,27.60
2019-02-18T15:08:15.419Z,26.95
2019-02-18T15:13:21.431Z,26.65
2019-02-18T15:18:29.018Z,22.37
2019-02-18T15:23:39.215Z,25.70
2019-02-18T15:28:46.596Z,38.92
2019-02-18T15:33:52.961Z,28.02
2019-02-18T15:39:01.681Z,24.27
2019-02-18T15:44:10.950Z,22.90
2019-02-18T15:49:19.426Z,25.88
2019-02-18T15:54:25.923Z,27.55
2019-02-18T15:59:34.656Z,22.75
2019-02-18T16:04:41.047Z,25.17
2019-02-18T16:09:50.103Z,22.60
2019-02-18T16:14:56.548Z,24.70
2019-02-18T16:20:03.381Z,27.37
2019-02-18T16:25:24.198Z,26.50
2019-02-18T16:30:32.374Z,24.13
2019-02-18T16:35:38.273Z,24.97
2019-02-18T16:40:44.615Z,27.90
2019-02-18T16:45:50.754Z,24.77
2019-02-18T16:50:56.799Z,25.00
2019-02-18T16:56:03.226Z,27.57
2019-02-18T17:01:09.803Z,26.47
2019-02-18T17:06:16.168Z,29.70
2019-02-18T17:11:24.500Z,28.80
2019-02-18T17:16:30.839Z,22.97
2019-02-18T17:21:38.252Z,23.13
2019-02-18T17:26:44.165Z,31.87
2019-02-18T17:31:50.476Z,27.90
2019-02-18T17:36:56.935Z,29.90
2019-02-18T17:42:02.983Z,28.70
2019-02-18T17:47:09.605Z,28.27
2019-02-18T17:52:19.404Z,32.03
2019-02-18T17:57:25.399Z,30.67
2019-02-18T18:02:34.456Z,28.67
2019-02-18T18:07:40.776Z,33.60
2019-02-18T18:12:47.137Z,31.13
2019-02-18T18:17:53.335Z,34.60
2019-02-18T18:22:59.174Z,31.20
2019-02-18T18:28:06.414Z,29.17
2019-02-18T18:33:12.326Z,27.63
2019-02-18T18:38:18.399Z,29.80
2019-02-18T18:43:33.434Z,28.13
2019-02-18T18:48:32.804Z,29.70
2019-02-18T18:53:39.577Z,30.23
2019-02-18T18:58:47.477Z,33.93
2019-02-18T19:03:53.524Z,32.63
2019-02-18T19:08:59.993Z,30.60
2019-02-18T19:14:05.637Z,29.47
2019-02-18T19:19:12.839Z,35.00
2019-02-18T19:24:19.013Z,38.13
2019-02-18T19:29:24.952Z,34.40
2019-02-18T19:34:30.810Z,30.80
2019-02-18T19:39:36.743Z,30.33
2019-02-18T19:44:42.840Z,36.23
2019-02-18T19:49:49.471Z,37.30
2019-02-18T19:54:57.196Z,34.10
2019-02-18T20:00:03.110Z,32.43
2019-02-18T20:05:10.135Z,34.00
2019-02-18T20:10:15.943Z,37.23
2019-02-18T20:15:21.901Z,36.37
2019-02-18T20:20:28.282Z,36.43
2019-02-18T20:25:34.154Z,30.07
2019-02-18T20:30:40.129Z,30.57
2019-02-18T20:35:46.374Z,34.40
2019-02-18T20:40:52.487Z,34.03
2019-02-18T20:45:58.732Z,31.27
2019-02-18T20:51:05.502Z,32.90
2019-02-18T20:56:11.345Z,28.27
2019-02-18T21:01:17.419Z,34.03
2019-02-18T21:06:23.014Z,34.97
2019-02-18T21:11:28.894Z,30.03
2019-02-18T21:16:34.652Z,32.50
2019-02-18T21:21:42.440Z,27.93
2019-02-18T21:26:48.412Z,31.43
2019-02-18T21:31:54.228Z,29.67
2019-02-18T21:37:01.172Z,32.70
2019-02-18T21:42:07.790Z,35.20
2019-02-18T21:47:14.017Z,32.33
2019-02-18T21:52:19.964Z,32.70
2019-02-18T21:57:25.773Z,73.60
2019-02-18T22:02:31.985Z,83.30
2019-02-18T22:07:37.679Z,82.20
2019-02-18T22:12:43.881Z,31.83
2019-02-18T22:17:50.752Z,33.67
2019-02-18T22:22:56.380Z,33.30
2019-02-18T22:28:02.355Z,30.57
2019-02-18T22:33:10.020Z,29.73
2019-02-18T22:38:16.126Z,31.07
2019-02-18T22:43:22.526Z,32.33
2019-02-18T22:48:28.710Z,32.90
2019-02-18T22:53:34.458Z,31.10
2019-02-18T22:58:40.525Z,33.53
2019-02-18T23:03:46.278Z,35.63
2019-02-18T23:08:51.857Z,31.73
2019-02-18T23:13:57.734Z,31.20
2019-02-18T23:19:03.548Z,36.03
2019-02-18T23:24:09.177Z,35.77
2019-02-18T23:29:15.733Z,33.20
2019-02-18T23:34:21.910Z,31.57
2019-02-18T23:39:27.942Z,31.77
2019-02-18T23:44:33.889Z,33.93
2019-02-18T23:49:39.749Z,33.07
2019-02-18T23:54:45.682Z,36.40
2019-02-18T23:59:51.723Z,34.53
